createdAt,value
2018-05-13T00:00:20.676Z,101173.20
2018-05-13T00:05:24.275Z,101163.41
2018-05-13T00:10:27.770Z,101158.67
2018-05-13T00:15:31.305Z,101157.90
2018-05-13T00:20:34.819Z,101155.78
2018-05-13T00:25:38.358Z,101154.16
2018-05-13T00:30:41.881Z,101154.97
2018-05-13T00:35:45.477Z,101148.22
2018-05-13T00:40:49.085Z,101144.48
2018-05-13T00:45:52.674Z,101136.34
2018-05-13T00:50:56.147Z,101133.77
2018-05-13T00:55:59.666Z,101132.03
2018-05-13T01:01:02.871Z,101136.73
2018-05-13T01:06:06.383Z,101130.27
2018-05-13T01:11:09.915Z,101138.89
2018-05-13T01:16:13.977Z,101137.37
2018-05-13T01:21:17.206Z,101128.47
2018-05-13T01:26:20.809Z,101126.84
2018-05-13T01:31:24.379Z,101126.66
2018-05-13T01:36:27.546Z,101128.72
2018-05-13T01:41:30.677Z,101130.59
2018-05-13T01:46:34.187Z,101119.91
2018-05-13T01:51:37.671Z,101123.20
2018-05-13T01:56:41.190Z,101117.05
2018-05-13T02:01:44.418Z,101120.09
2018-05-13T02:06:48.012Z,101115.56
2018-05-13T02:11:51.553Z,101107.33
2018-05-13T02:16:55.090Z,101110.26
2018-05-13T02:21:59.288Z,101105.11
2018-05-13T02:27:02.826Z,101115.98
2018-05-13T02:32:06.361Z,101101.61
2018-05-13T02:37:09.860Z,101097.45
2018-05-13T02:42:13.426Z,101092.38
2018-05-13T02:47:17.012Z,101096.61
2018-05-13T02:52:20.645Z,101100.34
2018-05-13T02:57:24.181Z,101093.33
2018-05-13T03:02:27.688Z,101099.66
2018-05-13T03:07:31.208Z,101098.58
2018-05-13T03:12:34.709Z,101099.96
2018-05-13T03:17:38.209Z,101102.22
2018-05-13T03:22:41.721Z,101096.13
2018-05-13T03:27:45.258Z,101092.81
2018-05-13T03:32:48.473Z,101088.33
2018-05-13T03:37:52.038Z,101094.41
2018-05-13T03:42:55.600Z,101092.92
2018-05-13T03:47:59.099Z,101088.69
2018-05-13T03:53:02.683Z,101088.94
2018-05-13T03:58:06.203Z,101096.20
2018-05-13T04:03:09.749Z,101089.28
2018-05-13T04:14:06.715Z,101083.92
2018-05-13T04:19:09.207Z,101081.70
2018-05-13T04:24:11.700Z,101080.98
2018-05-13T04:29:14.500Z,101081.63
2018-05-13T04:34:17.382Z,101073.70
2018-05-13T04:39:19.918Z,101069.41
2018-05-13T04:44:22.457Z,101080.05
2018-05-13T04:49:25.024Z,101075.32
2018-05-13T04:54:27.506Z,101062.00
2018-05-13T04:59:30.007Z,101057.69
2018-05-13T05:04:33.285Z,101059.93
2018-05-13T05:09:35.828Z,101049.52
2018-05-13T05:14:38.327Z,101052.36
2018-05-13T05:19:40.842Z,101053.52
2018-05-13T05:24:43.376Z,101057.41
2018-05-13T05:29:45.887Z,101054.95
2018-05-13T05:34:48.423Z,101054.25
2018-05-13T05:39:50.973Z,101056.23
2018-05-13T05:44:53.495Z,101056.19
2018-05-13T05:49:55.969Z,101060.30
2018-05-13T05:54:58.459Z,101054.52
2018-05-13T06:00:01.014Z,101050.28
2018-05-13T06:05:03.509Z,101057.49
2018-05-13T06:10:06.031Z,101061.02
2018-05-13T06:15:08.582Z,101056.67
2018-05-13T06:20:11.193Z,101059.43
2018-05-13T06:25:13.819Z,101053.14
2018-05-13T06:30:16.389Z,101048.59
2018-05-13T06:35:18.938Z,101053.22
2018-05-13T06:40:21.454Z,101048.66
2018-05-13T06:45:23.997Z,101052.36
2018-05-13T06:50:26.501Z,101049.80
2018-05-13T06:55:29.013Z,101052.86
2018-05-13T07:00:31.553Z,101058.41
2018-05-13T07:05:34.104Z,101041.46
2018-05-13T07:10:37.345Z,101052.08
2018-05-13T07:15:39.859Z,101041.72
2018-05-13T07:20:42.431Z,101033.87
2018-05-13T07:25:45.065Z,101034.41
2018-05-13T07:30:47.710Z,101021.50
2018-05-13T07:35:50.270Z,101030.08
2018-05-13T07:40:52.801Z,101020.72
2018-05-13T07:45:56.060Z,101020.13
2018-05-13T07:50:58.574Z,101020.52
2018-05-13T07:56:01.129Z,101020.33
2018-05-13T08:01:03.650Z,101027.42
2018-05-13T08:06:06.239Z,101015.50
2018-05-13T08:11:08.685Z,101018.34
2018-05-13T08:16:11.366Z,101008.70
2018-05-13T08:21:13.907Z,101005.27
2018-05-13T08:26:16.482Z,101006.72
2018-05-13T08:31:19.002Z,100996.52
2018-05-13T08:36:21.992Z,100992.48
2018-05-13T08:41:24.697Z,100986.90
2018-05-13T08:46:27.320Z,100996.23
2018-05-13T08:51:29.795Z,100985.20
2018-05-13T08:56:32.313Z,100980.17
2018-05-13T09:01:34.829Z,100973.67
2018-05-13T09:06:37.423Z,100974.80
2018-05-13T09:11:40.023Z,100960.78
2018-05-13T09:16:42.586Z,100963.91
2018-05-13T09:21:45.118Z,100963.56
2018-05-13T09:26:47.711Z,100956.92
2018-05-13T09:31:50.209Z,100956.79
2018-05-13T09:36:52.708Z,100953.67
2018-05-13T09:41:55.212Z,100957.64
2018-05-13T09:46:57.709Z,100951.02
2018-05-13T09:52:00.191Z,100942.22
2018-05-13T09:57:02.694Z,100935.36
2018-05-13T10:02:05.227Z,100952.35
2018-05-13T10:07:07.776Z,100950.50
2018-05-13T10:12:10.299Z,100947.16
2018-05-13T10:17:12.814Z,100946.06
2018-05-13T10:22:15.431Z,100947.12
2018-05-13T10:27:18.109Z,100938.31
2018-05-13T10:37:46.785Z,100934.63
2018-05-13T10:48:33.784Z,100921.45
2018-05-13T10:53:55.799Z,100918.05
2018-05-13T10:58:59.920Z,100912.71
2018-05-13T11:04:05.787Z,100913.31
2018-05-13T11:09:08.272Z,100912.86
2018-05-13T11:14:10.847Z,100912.97
2018-05-13T11:19:13.395Z,100899.69
2018-05-13T11:24:15.891Z,100888.78
2018-05-13T11:29:18.408Z,100893.89
2018-05-13T11:34:21.076Z,100893.13
2018-05-13T11:39:23.707Z,100891.23
2018-05-13T11:44:26.385Z,100879.12
2018-05-13T11:49:29.033Z,100877.94
2018-05-13T11:54:31.530Z,100876.53
2018-05-13T11:59:34.036Z,100865.68
2018-05-13T12:04:36.526Z,100868.27
2018-05-13T12:09:39.079Z,100864.01
2018-05-13T12:14:41.632Z,100854.42
2018-05-13T12:19:44.732Z,100850.97
2018-05-13T12:24:47.282Z,100847.27
2018-05-13T12:29:49.778Z,100848.83
2018-05-13T12:34:52.314Z,100842.11
2018-05-13T12:39:55.318Z,100857.44
2018-05-13T12:44:58.609Z,100836.30
2018-05-13T12:50:01.155Z,100846.37
2018-05-13T12:55:04.596Z,100840.05
2018-05-13T13:00:07.115Z,100833.55
2018-05-13T13:05:09.661Z,100825.31
2018-05-13T13:10:12.159Z,100826.80
2018-05-13T13:15:14.808Z,100815.61
2018-05-13T13:20:17.301Z,100821.55
2018-05-13T13:25:19.820Z,100814.69
2018-05-13T13:30:22.546Z,100801.14
2018-05-13T13:35:24.943Z,100802.80
2018-05-13T13:40:27.672Z,100808.97
2018-05-13T13:45:30.484Z,100800.56
2018-05-13T13:50:32.955Z,100803.30
2018-05-13T13:55:35.462Z,100800.16
2018-05-13T14:00:38.660Z,100791.33
2018-05-13T14:05:41.155Z,100787.58
2018-05-13T14:10:43.723Z,100783.17
2018-05-13T14:15:46.356Z,100778.67
2018-05-13T14:20:48.884Z,100757.94
2018-05-13T14:25:51.538Z,100759.91
2018-05-13T14:30:54.028Z,100757.86
2018-05-13T14:35:56.588Z,100756.59
2018-05-13T14:40:59.113Z,100752.34
2018-05-13T14:46:01.567Z,100740.24
2018-05-13T14:51:04.111Z,100745.77
2018-05-13T14:56:06.616Z,100740.39
2018-05-13T15:01:09.097Z,100749.49
2018-05-13T15:06:11.618Z,100727.53
2018-05-13T15:11:14.222Z,100735.67
2018-05-13T15:16:16.864Z,100731.17
2018-05-13T15:21:19.382Z,100727.86
2018-05-13T15:26:23.092Z,100721.20
2018-05-13T15:31:25.645Z,100715.74
2018-05-13T15:36:29.095Z,100716.60
2018-05-13T15:41:31.621Z,100719.02
2018-05-13T15:46:34.114Z,100711.09
2018-05-13T15:51:36.620Z,100718.70
2018-05-13T15:56:39.103Z,100712.84
2018-05-13T16:01:41.572Z,100702.85
2018-05-13T16:06:44.200Z,100700.00
2018-05-13T16:11:46.751Z,100701.93
2018-05-13T16:16:49.313Z,100700.63
2018-05-13T16:21:51.858Z,100702.04
2018-05-13T16:26:54.344Z,100702.95
2018-05-13T16:31:56.887Z,100692.64
2018-05-13T16:36:59.370Z,100696.83
2018-05-13T16:42:01.861Z,100693.15
2018-05-13T16:47:04.362Z,100685.25
2018-05-13T16:52:06.861Z,100690.30
2018-05-13T16:57:09.720Z,100687.60
2018-05-13T17:02:12.287Z,100691.67
2018-05-13T17:07:14.899Z,100690.55
2018-05-13T17:12:17.452Z,100690.84
2018-05-13T17:17:20.059Z,100695.05
2018-05-13T17:22:22.513Z,100688.26
2018-05-13T17:27:26.121Z,100692.18
2018-05-13T17:32:28.679Z,100684.05
2018-05-13T17:37:31.239Z,100691.89
2018-05-13T17:42:33.688Z,100692.91
2018-05-13T17:47:36.198Z,100704.44
2018-05-13T17:52:38.717Z,100693.25
2018-05-13T17:57:41.256Z,100694.67
2018-05-13T18:02:43.739Z,100694.98
2018-05-13T18:07:46.277Z,100707.78
2018-05-13T18:12:48.856Z,100714.85
2018-05-13T18:17:53.360Z,100716.50
2018-05-13T18:22:56.466Z,100711.83
2018-05-13T18:27:58.952Z,100720.84
2018-05-13T18:33:01.731Z,100721.53
2018-05-13T18:38:16.492Z,100724.64
2018-05-13T18:43:21.838Z,100732.55
2018-05-13T18:48:25.005Z,100740.86
2018-05-13T18:53:27.574Z,100741.92
2018-05-13T18:58:30.321Z,100750.91
2018-05-13T19:03:32.842Z,100752.02
2018-05-13T19:08:35.526Z,100758.13
2018-05-13T19:13:38.657Z,100760.84
2018-05-13T19:18:41.182Z,100775.17
2018-05-13T19:23:45.936Z,100774.12
2018-05-13T19:28:48.515Z,100786.84
2018-05-13T19:33:51.814Z,100788.82
2018-05-13T19:38:54.988Z,100801.66
2018-05-13T19:44:13.922Z,100800.86
2018-05-13T19:49:24.500Z,100805.02
2018-05-13T19:54:35.530Z,100807.37
2018-05-13T19:59:42.973Z,100809.16
2018-05-13T20:04:58.252Z,100818.13
2018-05-13T20:10:05.303Z,100817.66
2018-05-13T20:15:11.162Z,100822.31
2018-05-13T20:20:18.404Z,100818.67
2018-05-13T20:25:20.964Z,100822.35
2018-05-13T20:30:24.361Z,100832.23
2018-05-13T20:35:26.818Z,100835.45
2018-05-13T20:40:31.392Z,100843.61
2018-05-13T20:45:33.988Z,100840.06
2018-05-13T20:50:38.001Z,100848.50
2018-05-13T20:55:40.817Z,100848.81
2018-05-13T21:00:43.307Z,100848.57
2018-05-13T21:05:45.861Z,100848.21
2018-05-13T21:10:49.353Z,100853.50
2018-05-13T21:15:53.091Z,100854.84
2018-05-13T21:20:55.594Z,100849.98
2018-05-13T21:25:58.083Z,100844.97
2018-05-13T21:31:03.480Z,100857.19
2018-05-13T21:36:09.129Z,100853.14
2018-05-13T21:41:15.578Z,100848.31
2018-05-13T21:46:20.725Z,100845.92
2018-05-13T21:51:27.485Z,100850.15
2018-05-13T21:56:33.445Z,100854.95
2018-05-13T22:01:35.927Z,100853.34
2018-05-13T22:06:38.401Z,100863.06
2018-05-13T22:11:40.954Z,100860.27
2018-05-13T22:16:45.742Z,100863.06
2018-05-13T22:21:48.421Z,100869.29
2018-05-13T22:26:50.966Z,100869.12
2018-05-13T22:31:53.504Z,100866.47
2018-05-13T22:36:56.023Z,100854.34
2018-05-13T22:41:58.533Z,100855.03
2018-05-13T22:47:04.545Z,100851.72
2018-05-13T22:52:07.042Z,100858.35
2018-05-13T22:57:09.891Z,100864.89
2018-05-13T23:02:14.572Z,100866.97
2018-05-13T23:07:17.795Z,100865.41
2018-05-13T23:12:20.296Z,100869.17
2018-05-13T23:17:22.887Z,100868.98
2018-05-13T23:22:34.339Z,100867.25
2018-05-13T23:27:36.846Z,100862.86
2018-05-13T23:32:39.406Z,100866.19
2018-05-13T23:37:41.873Z,100871.02
2018-05-13T23:42:44.427Z,100876.43
2018-05-13T23:47:46.962Z,100878.52
2018-05-13T23:52:49.472Z,100877.47
2018-05-13T23:57:51.998Z,100879.23
